Time;durP1;ratioP1;P1;durP2;ratioP2;P2;SDS_P1;SDS_P2;PMS_P1;PMS_P2;Temp;Humidity;BMP_temperature;BMP_pressure;BME280_temperature;BME280_humidity;BME280_pressure;Samples;Min_cycle;Max_cycle;Signal;HPM_P1;HPM_P2
2021/05/09 00:01:00;;;;;;;19.87;13.10;;;;;;;6.15;67.16;100840.87;1662758;85;25825;-71
2021/05/09 00:03:26;;;;;;;20.62;13.55;;;;;;;6.13;67.16;100838.88;1662162;85;25760;-73
2021/05/09 00:05:52;;;;;;;23.32;14.07;;;;;;;6.14;67.13;100837.13;1661249;85;25821;-74
2021/05/09 00:08:18;;;;;;;20.08;13.20;;;;;;;6.15;67.13;100830.97;1652248;85;26447;-73
2021/05/09 00:10:44;;;;;;;23.25;15.25;;;;;;;6.16;67.17;100827.42;1635680;86;25754;-72
2021/05/09 00:13:11;;;;;;;20.88;13.50;;;;;;;6.16;67.16;100827.42;1663401;85;26447;-71
2021/05/09 00:15:37;;;;;;;21.60;14.35;;;;;;;6.09;67.14;100828.41;1656486;85;25800;-71
2021/05/09 00:18:04;;;;;;;22.80;14.95;;;;;;;5.96;67.20;100829.86;1662300;85;25725;-74
2021/05/09 00:20:30;;;;;;;23.47;14.58;;;;;;;5.84;67.37;100825.64;1663461;85;25833;-73
2021/05/09 00:22:56;;;;;;;25.02;15.05;;;;;;;5.79;67.52;100823.41;1661471;85;25959;-71
2021/05/09 00:25:22;;;;;;;23.60;14.87;;;;;;;5.69;67.56;100821.19;1663767;85;25865;-71
2021/05/09 00:27:48;;;;;;;23.23;15.63;;;;;;;5.70;67.75;100823.30;1663204;85;27196;-72
2021/05/09 00:30:16;;;;;;;25.50;14.63;;;;;;;5.65;67.76;100823.69;1662118;85;25825;-71
2021/05/09 00:32:43;;;;;;;23.20;14.55;;;;;;;5.62;67.97;100826.52;1663637;85;25670;-72
2021/05/09 00:35:11;;;;;;;25.08;14.95;;;;;;;5.52;67.95;100830.30;1661095;85;26173;-71
2021/05/09 00:37:36;;;;;;;22.93;16.30;;;;;;;5.42;68.08;100824.66;1662035;85;25806;-73
2021/05/09 00:40:05;;;;;;;25.53;14.60;;;;;;;5.39;68.34;100836.09;1639652;85;29269;-71
2021/05/09 00:42:31;;;;;;;22.65;14.50;;;;;;;5.32;68.36;100838.83;1664549;85;25869;-73
2021/05/09 00:44:57;;;;;;;25.95;15.70;;;;;;;5.32;68.54;100837.05;1641654;85;25706;-73
2021/05/09 00:47:23;;;;;;;27.73;15.63;;;;;;;5.26;68.59;100827.14;1643722;85;25617;-74
2021/05/09 00:49:51;;;;;;;24.57;16.40;;;;;;;5.30;68.79;100832.92;1660307;85;26483;-73
2021/05/09 00:52:18;;;;;;;29.85;16.65;;;;;;;5.28;68.74;100829.14;1663710;85;25892;-74
2021/05/09 00:55:02;;;;;;;29.15;16.70;;;;;;;5.31;68.77;100829.38;1664450;85;25862;-73
2021/05/09 00:57:33;;;;;;;24.55;16.15;;;;;;;5.36;68.90;100828.56;1661917;85;26522;-73
2021/05/09 01:00:01;;;;;;;29.50;17.32;;;;;;;5.36;68.85;100822.08;1664009;85;25852;-74
2021/05/09 01:02:29;;;;;;;23.87;16.07;;;;;;;5.43;68.87;100819.81;1651914;85;25404;-74
2021/05/09 01:04:56;;;;;;;27.80;16.82;;;;;;;5.37;68.67;100821.13;1661380;85;26733;-74
2021/05/09 01:07:22;;;;;;;28.30;17.40;;;;;;;5.27;68.77;100817.14;1663703;85;25804;-74
2021/05/09 01:09:49;;;;;;;27.13;16.60;;;;;;;5.27;68.91;100818.92;1661519;85;25781;-74
2021/05/09 01:12:16;;;;;;;25.20;16.12;;;;;;;5.21;68.89;100814.19;1661872;85;25710;-71
2021/05/09 01:14:43;;;;;;;25.60;16.27;;;;;;;5.15;68.95;100815.97;1663235;85;25926;-71
2021/05/09 01:17:11;;;;;;;26.37;16.02;;;;;;;5.11;69.11;100812.31;1660911;85;25815;-72
2021/05/09 01:19:39;;;;;;;21.20;15.03;;;;;;;5.08;69.27;100815.16;1662518;85;25769;-71
2021/05/09 01:22:11;;;;;;;25.17;16.15;;;;;;;5.00;69.32;100817.51;1660648;85;26038;-71
2021/05/09 01:24:38;;;;;;;28.47;16.02;;;;;;;4.90;69.51;100823.84;1663800;85;26012;-71
2021/05/09 01:27:06;;;;;;;24.52;15.72;;;;;;;4.90;69.75;100817.84;1663234;85;25353;-74
2021/05/09 01:29:34;;;;;;;23.60;15.15;;;;;;;4.87;69.73;100820.67;1662849;85;25823;-74
2021/05/09 01:32:04;;;;;;;24.03;15.73;;;;;;;4.87;69.89;100830.56;1662560;85;26419;-74
2021/05/09 01:34:37;;;;;;;26.05;15.53;;;;;;;4.84;69.92;100826.91;1664046;85;25792;-74
2021/05/09 01:37:04;;;;;;;22.70;15.13;;;;;;;4.83;69.99;100830.45;1662811;85;25797;-73
2021/05/09 01:39:31;;;;;;;23.95;14.18;;;;;;;4.85;69.95;100832.91;1651488;85;25746;-74
2021/05/09 01:42:00;;;;;;;23.38;14.78;;;;;;;4.90;69.99;100838.09;1623140;86;25809;-74
2021/05/09 01:44:25;;;;;;;26.73;15.40;;;;;;;4.91;69.86;100842.83;1661018;84;25434;-74
2021/05/09 01:46:51;;;;;;;27.97;15.80;;;;;;;4.83;69.77;100836.92;1669307;84;26846;-74
2021/05/09 01:49:17;;;;;;;23.35;14.78;;;;;;;4.82;69.81;100840.44;1661029;85;25850;-74
2021/05/09 01:51:43;;;;;;;23.37;15.13;;;;;;;4.75;69.76;100839.27;1650068;85;26453;-74
2021/05/09 01:54:09;;;;;;;22.47;14.20;;;;;;;4.77;69.97;100847.72;1653510;85;28494;-74
2021/05/09 01:56:35;;;;;;;24.65;15.23;;;;;;;4.74;69.95;100845.84;1663102;85;25719;-74
2021/05/09 01:59:03;;;;;;;25.95;14.95;;;;;;;4.73;70.03;100849.38;1658169;85;25780;-74
2021/05/09 02:01:30;;;;;;;26.85;16.42;;;;;;;4.63;70.10;100855.23;1660444;85;25777;-73
2021/05/09 02:03:58;;;;;;;20.57;14.80;;;;;;;4.63;70.33;100851.34;1661884;84;25979;-74
2021/05/09 02:06:25;;;;;;;24.90;16.52;;;;;;;4.55;70.03;100844.63;1658594;85;25793;-75
2021/05/09 02:08:51;;;;;;;25.30;17.50;;;;;;;4.47;70.25;100853.42;1663653;85;25737;-74
2021/05/09 02:11:22;;;;;;;24.18;16.55;;;;;;;4.45;70.46;100849.67;1663004;84;26078;-75
2021/05/09 02:13:49;;;;;;;27.45;17.00;;;;;;;4.45;70.62;100854.85;1646186;85;25723;-74
2021/05/09 02:16:19;;;;;;;30.40;18.23;;;;;;;4.40;70.64;100850.95;1659762;85;25563;-75
2021/05/09 02:18:46;;;;;;;28.77;16.45;;;;;;;4.35;70.78;100853.87;1662051;85;26514;-75
2021/05/09 02:21:12;;;;;;;24.15;16.95;;;;;;;4.30;70.87;100855.14;1645674;85;25913;-74
2021/05/09 02:23:39;;;;;;;26.90;16.57;;;;;;;4.25;71.00;100848.19;1660088;85;25785;-75
2021/05/09 02:26:05;;;;;;;24.43;16.55;;;;;;;4.20;71.09;100854.53;1663211;85;25977;-74
2021/05/09 02:28:32;;;;;;;27.95;16.97;;;;;;;4.20;71.24;100853.68;1665022;85;25804;-74
2021/05/09 02:30:58;;;;;;;22.27;17.43;;;;;;;4.17;71.31;100861.23;1663188;85;26281;-75
2021/05/09 02:33:24;;;;;;;24.47;16.90;;;;;;;4.16;71.33;100864.73;1663205;85;25792;-75
2021/05/09 02:35:49;;;;;;;27.77;18.27;;;;;;;4.21;71.53;100861.82;1661111;85;25849;-74
2021/05/09 02:38:15;;;;;;;24.37;16.37;;;;;;;4.25;71.51;100864.53;1660173;85;25973;-74
2021/05/09 02:40:41;;;;;;;25.45;15.83;;;;;;;4.22;71.45;100860.40;1662461;85;25860;-75
2021/05/09 02:43:08;;;;;;;23.15;16.12;;;;;;;4.23;71.54;100859.95;1661890;85;25697;-74
2021/05/09 02:45:36;;;;;;;26.07;15.83;;;;;;;4.24;71.60;100875.83;1663294;85;25845;-72
2021/05/09 02:48:02;;;;;;;24.83;16.60;;;;;;;4.23;71.60;100875.00;1662416;85;25742;-72
2021/05/09 02:50:29;;;;;;;25.30;16.57;;;;;;;4.26;71.71;100869.26;1651875;85;26002;-72
2021/05/09 02:52:55;;;;;;;27.33;16.77;;;;;;;4.23;71.60;100876.77;1663344;85;25713;-73
2021/05/09 02:55:21;;;;;;;23.10;15.77;;;;;;;4.19;71.59;100870.97;1662751;85;25874;-74
2021/05/09 02:57:47;;;;;;;25.43;16.67;;;;;;;4.22;71.67;100869.45;1661617;85;25357;-73
2021/05/09 03:00:14;;;;;;;25.00;16.60;;;;;;;4.19;71.62;100877.91;1662484;85;26026;-72
2021/05/09 03:02:40;;;;;;;29.67;18.27;;;;;;;4.22;71.75;100870.75;1650087;85;26910;-72
2021/05/09 03:05:10;;;;;;;27.93;17.62;;;;;;;4.17;71.63;100874.16;1651061;85;25827;-72
2021/05/09 03:07:36;;;;;;;26.85;18.20;;;;;;;4.15;71.76;100866.97;1651208;85;25832;-75
2021/05/09 03:10:04;;;;;;;30.33;18.70;;;;;;;4.17;71.89;100865.55;1651964;85;25360;-75
2021/05/09 03:12:30;;;;;;;34.08;21.23;;;;;;;4.14;71.92;100868.36;1650958;85;27876;-73
2021/05/09 03:14:57;;;;;;;29.65;21.48;;;;;;;4.14;72.10;100874.83;1651337;85;25812;-74
2021/05/09 03:17:23;;;;;;;31.83;22.83;;;;;;;4.11;72.17;100873.28;1661843;85;25954;-75
2021/05/09 03:19:49;;;;;;;38.03;26.83;;;;;;;4.09;72.31;100880.80;1660936;85;25775;-75
2021/05/09 03:22:15;;;;;;;37.97;29.67;;;;;;;4.05;72.35;100878.09;1663621;85;25363;-74
2021/05/09 03:24:41;;;;;;;39.43;29.10;;;;;;;4.06;72.50;100887.02;1662349;85;25876;-74
2021/05/09 03:27:07;;;;;;;37.23;26.97;;;;;;;4.05;72.59;100876.80;1665468;85;25861;-75
2021/05/09 03:29:32;;;;;;;38.60;25.77;;;;;;;4.07;72.67;100876.23;1665214;85;25728;-75
2021/05/09 03:31:58;;;;;;;32.23;23.03;;;;;;;4.08;72.80;100879.98;1662260;85;26735;-73
2021/05/09 03:34:24;;;;;;;32.77;21.83;;;;;;;4.11;72.81;100881.05;1661902;85;25862;-74
2021/05/09 03:36:50;;;;;;;34.47;21.93;;;;;;;4.14;72.85;100873.53;1662735;85;25866;-74
2021/05/09 03:39:17;;;;;;;29.03;20.13;;;;;;;4.15;72.90;100870.85;1666593;85;25855;-74
2021/05/09 03:41:42;;;;;;;30.32;20.75;;;;;;;4.19;73.03;100872.27;1662060;85;25840;-73
2021/05/09 03:44:08;;;;;;;30.17;21.27;;;;;;;4.25;73.10;100876.64;1661768;85;25858;-74
2021/05/09 03:46:34;;;;;;;34.03;21.00;;;;;;;4.28;73.12;100874.65;1660166;85;25936;-74
2021/05/09 03:49:00;;;;;;;30.20;20.03;;;;;;;4.32;73.19;100871.39;1662539;85;25774;-73
2021/05/09 03:51:26;;;;;;;32.03;20.83;;;;;;;4.36;73.24;100874.09;1661923;85;25925;-72
2021/05/09 03:53:51;;;;;;;32.20;21.10;;;;;;;4.40;73.27;100872.48;1663093;85;32170;-72
2021/05/09 03:56:17;;;;;;;32.73;22.03;;;;;;;4.45;73.35;100874.27;1661905;85;25847;-72
2021/05/09 03:58:43;;;;;;;28.70;19.47;;;;;;;4.50;73.37;100875.67;1659979;85;25949;-74
2021/05/09 04:01:09;;;;;;;31.80;20.67;;;;;;;4.54;73.36;100877.11;1657155;85;26239;-74
2021/05/09 04:03:35;;;;;;;32.00;20.50;;;;;;;4.60;73.45;100877.94;1677931;84;25432;-73
2021/05/09 04:06:00;;;;;;;30.90;19.87;;;;;;;4.61;73.46;100877.84;1673955;84;27239;-75
2021/05/09 04:08:28;;;;;;;34.83;20.03;;;;;;;4.65;73.54;100875.84;1674390;84;26209;-72
2021/05/09 04:10:56;;;;;;;30.50;21.25;;;;;;;4.70;73.61;100871.15;1679115;84;25754;-72
2021/05/09 04:13:23;;;;;;;27.70;19.62;;;;;;;4.77;73.61;100874.09;1649497;85;26015;-72
2021/05/09 04:15:49;;;;;;;29.30;20.05;;;;;;;4.83;73.65;100869.30;1635038;86;25897;-72
2021/05/09 04:18:16;;;;;;;29.25;18.85;;;;;;;4.92;73.63;100865.66;1659465;85;26031;-74
2021/05/09 04:20:43;;;;;;;30.10;18.82;;;;;;;4.98;73.61;100869.08;1663291;85;25756;-75
2021/05/09 04:23:15;;;;;;;26.17;18.00;;;;;;;5.03;73.62;100864.37;1663962;85;25800;-74
2021/05/09 04:25:48;;;;;;;28.42;18.87;;;;;;;5.09;73.65;100866.02;1664452;85;25880;-74
2021/05/09 04:28:14;;;;;;;29.32;19.92;;;;;;;5.19;73.70;100864.03;1663365;85;25694;-74
2021/05/09 04:30:41;;;;;;;26.52;18.65;;;;;;;5.26;73.66;100864.72;1664099;85;25770;-74
2021/05/09 04:33:08;;;;;;;26.07;17.92;;;;;;;5.33;73.66;100865.08;1661855;85;25800;-74
2021/05/09 04:35:37;;;;;;;26.17;18.57;;;;;;;5.41;73.66;100861.42;1664594;85;25868;-74
2021/05/09 04:38:04;;;;;;;25.82;17.73;;;;;;;5.49;73.64;100861.66;1662457;85;26492;-74
2021/05/09 04:40:30;;;;;;;26.68;18.25;;;;;;;5.58;73.57;100860.58;1644181;85;25805;-75
2021/05/09 04:43:09;;;;;;;25.85;16.67;;;;;;;5.66;73.52;100858.22;1664647;85;25764;-74
2021/05/09 04:45:36;;;;;;;24.32;17.07;;;;;;;5.75;73.56;100862.19;1662606;85;25773;-74
2021/05/09 04:48:05;;;;;;;27.00;17.20;;;;;;;5.87;73.46;100863.00;1654143;85;25761;-74
2021/05/09 04:50:32;;;;;;;25.20;16.12;;;;;;;5.92;73.36;100858.72;1663248;85;25783;-74
2021/05/09 04:52:59;;;;;;;22.75;15.45;;;;;;;5.98;73.37;100860.88;1663695;85;25801;-74
2021/05/09 04:55:25;;;;;;;22.20;16.20;;;;;;;6.07;73.30;100863.20;1660968;85;25797;-74
2021/05/09 04:57:51;;;;;;;25.08;15.10;;;;;;;6.17;73.15;100862.83;1663821;85;25810;-74
2021/05/09 05:00:17;;;;;;;22.77;16.07;;;;;;;6.25;73.05;100866.07;1663650;85;25869;-74
2021/05/09 05:02:44;;;;;;;24.75;15.48;;;;;;;6.36;73.15;100859.08;1651813;85;27124;-74
2021/05/09 05:05:12;;;;;;;21.10;14.78;;;;;;;6.47;73.03;100854.30;1660810;85;25954;-74
2021/05/09 05:07:38;;;;;;;21.95;15.85;;;;;;;6.58;73.02;100866.41;1623422;86;25964;-74
2021/05/09 05:10:06;;;;;;;22.70;15.38;;;;;;;6.67;72.83;100864.34;1661021;85;25779;-74
2021/05/09 05:12:32;;;;;;;20.85;15.05;;;;;;;6.76;72.74;100859.66;1661277;85;25761;-74
2021/05/09 05:14:58;;;;;;;22.17;14.70;;;;;;;6.85;72.69;100860.70;1664707;84;26700;-74
2021/05/09 05:17:24;;;;;;;24.57;16.10;;;;;;;6.94;72.63;100859.09;1661511;85;25722;-74
2021/05/09 05:19:50;;;;;;;25.87;16.37;;;;;;;7.03;72.63;100854.41;1659555;85;26631;-74
2021/05/09 05:22:16;;;;;;;23.43;14.43;;;;;;;7.13;72.51;100854.47;1661979;85;29390;-74
2021/05/09 05:24:42;;;;;;;23.97;15.30;;;;;;;7.20;72.29;100848.62;1659107;85;26857;-72
2021/05/09 05:27:08;;;;;;;22.80;14.47;;;;;;;7.28;72.19;100848.80;1661891;85;25764;-72
2021/05/09 05:29:33;;;;;;;22.43;14.50;;;;;;;7.39;72.01;100850.92;1663652;84;25798;-74
2021/05/09 05:31:59;;;;;;;19.40;13.57;;;;;;;7.48;71.79;100847.06;1662584;85;26493;-75
2021/05/09 05:34:25;;;;;;;22.37;13.93;;;;;;;7.59;71.62;100843.53;1662887;85;27299;-74
2021/05/09 05:36:51;;;;;;;23.17;13.60;;;;;;;7.70;71.48;100849.10;1660707;85;26044;-74
2021/05/09 05:39:17;;;;;;;19.80;13.50;;;;;;;7.80;71.28;100842.11;1660647;85;25471;-74
2021/05/09 05:41:43;;;;;;;18.15;12.75;;;;;;;7.91;71.19;100852.88;1659625;85;25786;-74
2021/05/09 05:44:09;;;;;;;17.73;12.53;;;;;;;8.01;71.06;100847.21;1660946;85;25855;-74
2021/05/09 05:46:35;;;;;;;21.30;11.53;;;;;;;8.13;70.85;100848.73;1660354;85;26230;-72
2021/05/09 05:49:01;;;;;;;19.67;11.70;;;;;;;8.26;70.57;100845.02;1646221;85;26985;-72
2021/05/09 05:51:27;;;;;;;17.80;11.85;;;;;;;8.36;70.32;100841.94;1659349;85;26378;-72
2021/05/09 05:53:57;;;;;;;19.12;11.28;;;;;;;8.48;70.23;100847.84;1659968;85;25696;-74
2021/05/09 05:56:24;;;;;;;17.82;11.35;;;;;;;8.59;69.99;100849.83;1659680;85;25836;-74
2021/05/09 05:58:52;;;;;;;17.45;11.05;;;;;;;8.72;69.77;100848.70;1658291;85;25743;-75
2021/05/09 06:01:19;;;;;;;16.17;10.15;;;;;;;8.83;69.55;100847.22;1659990;85;25754;-73
2021/05/09 06:03:45;;;;;;;15.20;10.18;;;;;;;8.94;69.24;100852.26;1662901;85;26436;-75
2021/05/09 06:06:11;;;;;;;14.63;10.47;;;;;;;9.00;68.66;100846.50;1657765;85;25986;-74
2021/05/09 06:08:38;;;;;;;18.07;11.43;;;;;;;9.13;68.05;100850.07;1662005;85;26050;-73
2021/05/09 06:11:04;;;;;;;15.45;10.50;;;;;;;9.22;68.00;100848.38;1660490;85;25752;-74
2021/05/09 06:13:30;;;;;;;17.12;11.25;;;;;;;9.29;67.73;100843.75;1659773;85;25801;-75
2021/05/09 06:15:56;;;;;;;15.80;10.43;;;;;;;9.38;67.58;100841.24;1663694;85;26409;-75
2021/05/09 06:18:22;;;;;;;14.10;10.00;;;;;;;9.48;67.55;100837.61;1660058;85;25507;-74
2021/05/09 06:20:48;;;;;;;14.85;9.43;;;;;;;9.61;67.33;100835.97;1660835;85;25760;-75
2021/05/09 06:23:24;;;;;;;16.57;9.05;;;;;;;9.73;66.73;100831.35;1660613;85;26666;-72
2021/05/09 06:25:49;;;;;;;14.43;9.08;;;;;;;9.84;65.37;100827.70;1662996;85;25779;-74
2021/05/09 06:28:15;;;;;;;14.07;8.57;;;;;;;9.92;65.27;100820.77;1660739;85;25902;-72
2021/05/09 06:30:43;;;;;;;15.53;9.33;;;;;;;9.97;65.00;100821.63;1662943;85;25765;-72
2021/05/09 06:33:09;;;;;;;11.55;7.30;;;;;;;10.01;64.46;100830.80;1664005;85;25809;-73
2021/05/09 06:35:38;;;;;;;12.63;7.90;;;;;;;10.09;63.39;100828.74;1662100;85;25897;-72
2021/05/09 06:38:03;;;;;;;13.75;7.65;;;;;;;10.21;63.50;100820.53;1661602;85;25768;-72
2021/05/09 06:40:29;;;;;;;17.47;7.70;;;;;;;10.37;63.58;100814.65;1651424;85;26023;-72
2021/05/09 06:42:58;;;;;;;16.40;7.83;;;;;;;10.53;63.36;100818.33;1650185;85;25955;-72
2021/05/09 06:45:27;;;;;;;14.55;7.95;;;;;;;10.62;62.02;100810.40;1646231;85;25799;-72
2021/05/09 06:47:54;;;;;;;11.65;7.55;;;;;;;10.73;62.40;100807.20;1650581;85;25883;-73
2021/05/09 06:50:20;;;;;;;11.10;6.35;;;;;;;10.82;61.58;100811.00;1651395;85;25810;-72
2021/05/09 06:52:46;;;;;;;11.90;7.28;;;;;;;10.91;61.96;100804.00;1650656;85;25885;-72
2021/05/09 06:55:13;;;;;;;13.10;7.17;;;;;;;11.02;61.67;100807.69;1651112;85;27471;-72
2021/05/09 06:57:40;;;;;;;13.50;6.53;;;;;;;11.15;61.11;100805.92;1651579;85;26076;-72
2021/05/09 07:00:09;;;;;;;14.70;7.53;;;;;;;11.23;60.88;100798.59;1651110;85;25396;-71
2021/05/09 07:02:35;;;;;;;12.80;6.70;;;;;;;11.33;60.69;100797.48;1651448;85;25810;-74
2021/05/09 07:05:02;;;;;;;10.58;6.00;;;;;;;11.45;59.79;100800.61;1650697;85;26047;-75
2021/05/09 07:07:28;;;;;;;12.20;6.35;;;;;;;11.59;59.76;100806.21;1651876;85;25924;-72
2021/05/09 07:09:54;;;;;;;10.77;5.80;;;;;;;11.70;59.27;100798.05;1651129;85;25856;-74
2021/05/09 07:12:20;;;;;;;10.00;5.55;;;;;;;11.83;59.21;100802.33;1650147;85;33826;-72
2021/05/09 07:14:48;;;;;;;11.22;5.47;;;;;;;11.94;58.11;100796.80;1651278;85;25854;-72
2021/05/09 07:17:15;;;;;;;12.30;6.17;;;;;;;12.04;57.76;100791.41;1651637;85;25852;-72
2021/05/09 07:19:42;;;;;;;10.58;5.47;;;;;;;12.12;57.70;100797.95;1650579;85;26604;-72
2021/05/09 07:22:14;;;;;;;9.23;5.45;;;;;;;12.20;57.72;100787.97;1651035;85;25973;-74
2021/05/09 07:24:36;;;;;;;8.58;4.78;;;;;;;12.31;57.62;100790.25;1650140;85;26526;-74
2021/05/09 07:27:01;;;;;;;12.28;5.58;;;;;;;12.46;57.18;100789.56;1657308;85;30839;-75
2021/05/09 07:29:27;;;;;;;12.33;5.20;;;;;;;12.59;57.00;100786.75;1622761;86;25804;-74
2021/05/09 07:31:53;;;;;;;12.20;5.30;;;;;;;12.72;54.96;100799.84;1658731;85;28188;-73
2021/05/09 07:34:19;;;;;;;9.37;5.13;;;;;;;12.81;54.78;100790.95;1654613;85;26696;-74
2021/05/09 07:36:45;;;;;;;10.72;5.10;;;;;;;12.87;54.39;100801.58;1656875;85;25420;-74
2021/05/09 07:39:12;;;;;;;10.45;4.87;;;;;;;12.95;53.47;100800.73;1662697;85;32712;-71
2021/05/09 07:41:40;;;;;;;9.85;5.40;;;;;;;13.04;53.24;100797.11;1643740;85;25794;-73
2021/05/09 07:44:07;;;;;;;10.45;4.50;;;;;;;13.10;50.98;100793.80;1648808;85;25757;-72
2021/05/09 07:46:33;;;;;;;9.08;4.22;;;;;;;13.22;52.58;100799.48;1654189;85;25837;-73
2021/05/09 07:48:59;;;;;;;11.05;5.33;;;;;;;13.33;53.37;100797.00;1656980;85;25813;-72
2021/05/09 07:51:26;;;;;;;10.35;5.35;;;;;;;13.41;52.18;100786.95;1659603;85;25375;-74
2021/05/09 07:53:51;;;;;;;9.87;5.33;;;;;;;13.51;51.89;100787.55;1646874;85;26179;-73
2021/05/09 07:56:18;;;;;;;8.07;4.97;;;;;;;13.61;50.94;100778.12;1632877;85;30925;-71
2021/05/09 07:58:44;;;;;;;10.85;4.97;;;;;;;13.72;51.28;100765.42;1659547;85;25769;-71
2021/05/09 08:01:10;;;;;;;8.30;5.03;;;;;;;13.77;51.08;100768.81;1657366;85;34845;-71
2021/05/09 08:03:36;;;;;;;9.38;5.60;;;;;;;13.83;51.42;100754.99;1660708;85;32583;-72
2021/05/09 08:06:01;;;;;;;8.57;5.00;;;;;;;13.92;50.87;100753.92;1656197;85;26118;-73
2021/05/09 08:08:29;;;;;;;8.40;4.93;;;;;;;14.01;50.43;100761.73;1659727;85;31492;-73
2021/05/09 08:10:55;;;;;;;7.60;4.58;;;;;;;14.06;49.13;100758.89;1656230;85;25901;-72
2021/05/09 08:13:21;;;;;;;9.73;5.00;;;;;;;14.10;49.61;100762.78;1661755;85;34977;-71
2021/05/09 08:15:46;;;;;;;11.18;4.95;;;;;;;14.18;49.46;100759.27;1657258;85;32672;-71
2021/05/09 08:18:13;;;;;;;9.78;4.83;;;;;;;14.23;49.46;100750.36;1659472;85;25784;-71
2021/05/09 08:20:39;;;;;;;9.70;4.87;;;;;;;14.33;48.19;100743.53;1659760;85;25744;-71
2021/05/09 08:23:06;;;;;;;7.85;4.50;;;;;;;14.40;47.62;100745.27;1661398;84;25909;-71
2021/05/09 08:25:32;;;;;;;8.03;4.80;;;;;;;14.47;48.41;100744.54;1655915;85;25845;-71
2021/05/09 08:27:58;;;;;;;7.72;4.97;;;;;;;14.51;48.57;100741.84;1656598;84;25430;-74
2021/05/09 08:30:25;;;;;;;8.45;4.42;;;;;;;14.61;47.91;100742.43;1665666;84;25801;-71
2021/05/09 08:32:52;;;;;;;7.35;4.42;;;;;;;14.69;47.71;100742.34;1659527;85;26513;-73
2021/05/09 08:35:19;;;;;;;8.65;4.67;;;;;;;14.81;47.43;100737.42;1656012;85;25947;-70
2021/05/09 08:37:45;;;;;;;8.25;4.12;;;;;;;14.90;46.92;100728.44;1657976;85;25877;-71
2021/05/09 08:40:16;;;;;;;8.63;4.42;;;;;;;15.01;47.11;100735.05;1663162;85;25785;-71
2021/05/09 08:42:45;;;;;;;7.28;4.25;;;;;;;15.00;46.98;100722.87;1660438;85;25793;-72
2021/05/09 08:45:12;;;;;;;8.23;4.80;;;;;;;15.04;45.87;100733.36;1604867;86;26016;-72
2021/05/09 08:47:42;;;;;;;6.47;4.33;;;;;;;15.11;47.38;100740.81;1658964;85;26205;-72
2021/05/09 08:50:19;;;;;;;8.50;5.35;;;;;;;15.14;46.66;100737.84;1629839;86;25740;-71
2021/05/09 08:52:48;;;;;;;8.38;5.08;;;;;;;15.17;47.18;100740.57;1627057;85;25334;-72
2021/05/09 08:55:23;;;;;;;5.95;4.12;;;;;;;15.25;46.89;100741.30;1651314;85;25812;-72
2021/05/09 08:57:49;;;;;;;7.53;4.47;;;;;;;15.35;47.14;100752.83;1604972;88;25888;-70
2021/05/09 09:00:17;;;;;;;7.78;4.37;;;;;;;15.45;46.30;100740.69;1646418;85;25895;-71
2021/05/09 09:02:44;;;;;;;9.85;4.22;;;;;;;15.52;46.07;100739.75;1662844;84;25743;-71
2021/05/09 09:05:13;;;;;;;9.43;4.20;;;;;;;15.60;46.74;100741.94;1659728;85;25778;-69
2021/05/09 09:07:48;;;;;;;10.08;4.37;;;;;;;15.67;46.26;100725.69;1645105;85;26753;-71
2021/05/09 09:10:37;;;;;;;6.65;4.28;;;;;;;15.77;46.09;100723.59;1656620;85;25782;-71
2021/05/09 09:13:21;;;;;;;8.10;4.60;;;;;;;15.83;45.51;100722.81;1661865;85;25806;-71
2021/05/09 09:16:05;;;;;;;8.88;4.12;;;;;;;15.87;46.08;100717.97;1658031;85;25732;-72
2021/05/09 09:18:35;;;;;;;7.50;4.20;;;;;;;15.95;45.58;100717.83;1661164;85;25849;-73
2021/05/09 09:21:25;;;;;;;8.18;4.33;;;;;;;16.00;45.82;100719.39;1659495;85;26007;-72
2021/05/09 09:24:04;;;;;;;7.03;4.20;;;;;;;16.07;45.07;100722.91;1658806;85;25875;-74
2021/05/09 09:26:40;;;;;;;6.70;3.60;;;;;;;16.11;43.69;100716.22;1659669;85;25389;-74
2021/05/09 09:29:27;;;;;;;9.40;4.20;;;;;;;16.06;43.86;100713.34;1659059;84;26402;-70
2021/05/09 09:32:00;;;;;;;6.08;4.22;;;;;;;16.10;43.58;100711.16;1658011;85;25408;-72
2021/05/09 09:34:43;;;;;;;6.70;3.35;;;;;;;16.10;43.63;100713.29;1661630;85;25898;-70
2021/05/09 09:37:12;;;;;;;9.70;4.45;;;;;;;16.14;44.22;100710.56;1651333;85;25703;-72
2021/05/09 09:39:51;;;;;;;6.62;3.92;;;;;;;16.29;43.63;100714.42;1657430;85;25861;-71
2021/05/09 09:42:44;;;;;;;8.85;5.00;;;;;;;16.36;42.02;100714.45;1658997;85;26398;-72
2021/05/09 09:45:28;;;;;;;6.45;4.08;;;;;;;16.38;42.28;100707.16;1660011;85;25381;-71
2021/05/09 09:48:02;;;;;;;7.90;4.03;;;;;;;16.43;41.74;100710.04;1663259;85;25817;-73
2021/05/09 09:50:51;;;;;;;7.20;4.28;;;;;;;16.53;43.64;100709.67;1657488;85;25897;-73
2021/05/09 09:53:42;;;;;;;5.78;4.00;;;;;;;16.65;43.91;100716.03;1659879;85;25783;-73
2021/05/09 09:56:14;;;;;;;7.08;4.00;;;;;;;16.74;43.06;100702.16;1657248;85;25922;-71
2021/05/09 09:58:54;;;;;;;9.18;3.87;;;;;;;16.86;43.36;100709.36;1660049;85;25829;-71
2021/05/09 10:01:30;;;;;;;8.88;4.60;;;;;;;16.96;43.42;100705.00;1660536;84;25745;-72
2021/05/09 10:03:59;;;;;;;8.35;4.30;;;;;;;16.99;43.98;100711.72;1660775;85;25874;-73
2021/05/09 10:06:28;;;;;;;7.33;4.73;;;;;;;17.09;43.74;100698.95;1661485;85;26343;-73
2021/05/09 10:08:59;;;;;;;5.70;3.55;;;;;;;17.18;43.56;100702.22;1662855;85;25975;-72
2021/05/09 10:11:30;;;;;;;8.88;4.67;;;;;;;17.24;42.69;100693.48;1657487;85;26027;-73
2021/05/09 10:13:58;;;;;;;11.00;7.08;;;;;;;17.27;44.13;100681.23;1658177;85;25775;-71
2021/05/09 10:16:31;;;;;;;16.12;4.58;;;;;;;17.48;44.58;100696.88;1659048;85;25918;-71
2021/05/09 10:19:01;;;;;;;6.60;3.62;;;;;;;17.56;43.15;100697.19;1656450;85;25851;-71
2021/05/09 10:21:30;;;;;;;8.50;4.95;;;;;;;17.58;43.31;100687.23;1661628;85;25867;-71
2021/05/09 10:24:21;;;;;;;5.58;3.33;;;;;;;17.64;43.06;100698.83;1661808;85;25703;-73
2021/05/09 10:26:58;;;;;;;8.50;3.92;;;;;;;17.66;42.61;100690.20;1658625;85;25887;-73
2021/05/09 10:29:39;;;;;;;7.70;3.70;;;;;;;17.67;41.00;100686.52;1660403;85;25973;-71
2021/05/09 10:32:22;;;;;;;7.58;3.35;;;;;;;17.63;41.74;100682.16;1659140;85;26551;-71
2021/05/09 10:34:59;;;;;;;6.70;3.37;;;;;;;17.71;42.09;100685.92;1653263;85;26041;-72
2021/05/09 10:37:45;;;;;;;6.42;3.45;;;;;;;17.83;43.38;100684.81;1663103;85;25783;-73
2021/05/09 10:40:34;;;;;;;6.25;3.47;;;;;;;17.93;41.72;100675.16;1660450;85;26697;-72
2021/05/09 10:43:09;;;;;;;4.62;2.80;;;;;;;17.93;40.96;100672.52;1663011;84;25760;-73
2021/05/09 10:45:41;;;;;;;4.78;2.67;;;;;;;17.95;41.96;100667.33;1661280;85;25821;-74
2021/05/09 10:48:35;;;;;;;5.25;2.87;;;;;;;18.02;41.54;100665.17;1662224;85;25855;-73
2021/05/09 10:51:15;;;;;;;6.20;2.95;;;;;;;18.11;41.19;100667.37;1661471;84;25829;-73
2021/05/09 10:53:42;;;;;;;4.03;2.72;;;;;;;18.25;42.50;100671.31;1660926;85;25766;-72
2021/05/09 10:56:20;;;;;;;5.37;3.15;;;;;;;18.38;41.83;100658.85;1658661;85;25763;-72
2021/05/09 10:58:53;;;;;;;6.40;3.60;;;;;;;18.45;41.82;100658.84;1665293;85;25968;-73
2021/05/09 11:01:24;;;;;;;12.55;3.17;;;;;;;18.47;41.83;100662.59;1663777;85;26005;-72
2021/05/09 11:04:00;;;;;;;8.13;2.80;;;;;;;18.47;41.19;100661.27;1625377;86;25853;-72
2021/05/09 11:06:37;;;;;;;4.03;2.83;;;;;;;18.48;41.13;100665.04;1662123;85;26471;-72
2021/05/09 11:09:16;;;;;;;7.03;2.83;;;;;;;18.54;40.88;100658.09;1656178;85;25403;-72
2021/05/09 11:11:48;;;;;;;4.20;2.33;;;;;;;18.60;40.37;100647.45;1664712;85;25899;-72
2021/05/09 11:14:18;;;;;;;7.30;2.77;;;;;;;18.71;41.32;100650.47;1666837;85;25352;-74
2021/05/09 11:16:46;;;;;;;;;;;;;;;18.77;40.87;100644.35;1667060;85;25348;-71
2021/05/09 11:19:18;;;;;;;4.75;2.55;;;;;;;18.79;39.01;100641.80;1662176;85;25677;-72
2021/05/09 11:21:48;;;;;;;6.15;3.40;;;;;;;18.80;40.14;100632.04;1662749;85;25807;-72
2021/05/09 11:24:31;;;;;;;6.42;2.85;;;;;;;18.81;40.49;100631.00;1661015;85;25870;-72
2021/05/09 11:27:02;;;;;;;5.15;2.67;;;;;;;18.85;39.62;100633.52;1660959;85;25901;-70